Time;durP1;ratioP1;P1;durP2;ratioP2;P2;SDS_P1;SDS_P2;PMS_P1;PMS_P2;Temp;Humidity;BMP_temperature;BMP_pressure;BME280_temperature;BME280_humidity;BME280_pressure;Samples;Min_cycle;Max_cycle;Signal;HPM_P1;HPM_P2
2022/06/04 00:00:27;;;;;;;5.18;2.85;;;;;;;18.85;51.97;100857.53;5059765;28;20509;-88
2022/06/04 00:02:53;;;;;;;5.15;2.33;;;;;;;18.68;52.32;100867.94;5059780;28;20100;-89
2022/06/04 00:05:25;;;;;;;5.78;2.55;;;;;;;18.32;52.92;100866.91;5059861;28;20033;-89
2022/06/04 00:07:51;;;;;;;5.40;2.50;;;;;;;18.54;52.43;100861.28;5059415;28;20035;-88
2022/06/04 00:15:53;;;;;;;6.07;2.53;;;;;;;18.52;52.63;100855.25;5059900;28;20055;-89
2022/06/04 00:18:20;;;;;;;8.40;3.47;;;;;;;18.69;52.50;100863.44;5058307;28;20028;-89
2022/06/04 00:20:46;;;;;;;5.40;2.63;;;;;;;18.27;53.30;100863.88;5060381;28;20035;-89
2022/06/04 00:23:11;;;;;;;5.50;2.78;;;;;;;18.37;52.99;100867.34;5059399;28;20036;-89
2022/06/04 00:25:40;;;;;;;4.22;2.40;;;;;;;18.24;53.52;100871.13;5059423;28;20497;-89
2022/06/04 00:28:07;;;;;;;7.07;2.42;;;;;;;18.08;53.41;100873.53;5059436;28;20363;-88
2022/06/04 00:30:33;;;;;;;7.45;3.30;;;;;;;17.94;54.00;100874.78;5058337;28;20032;-89
2022/06/04 00:32:59;;;;;;;4.85;2.25;;;;;;;18.60;52.43;100878.44;5058815;28;20040;-89
2022/06/04 00:35:25;;;;;;;5.13;2.50;;;;;;;18.32;52.78;100878.38;5058109;28;20497;-89
2022/06/04 00:37:51;;;;;;;5.15;2.50;;;;;;;18.38;53.32;100875.19;5059279;28;20057;-89
2022/06/04 00:40:46;;;;;;;5.60;2.47;;;;;;;18.42;52.97;100873.03;5059549;28;20460;-89
2022/06/04 00:43:12;;;;;;;4.72;2.80;;;;;;;18.09;53.67;100871.69;5059136;28;20033;-89
2022/06/04 00:45:37;;;;;;;3.40;2.10;;;;;;;17.91;54.09;100874.22;5059432;28;20020;-89
2022/06/04 00:48:09;;;;;;;5.40;2.55;;;;;;;18.35;53.10;100882.59;5059349;28;20071;-88
2022/06/04 00:50:39;;;;;;;5.95;2.35;;;;;;;18.14;53.79;100880.94;5059530;28;20112;-89
2022/06/04 00:53:08;;;;;;;5.00;2.55;;;;;;;17.89;54.37;100871.75;5058941;28;20116;-89
2022/06/04 00:56:19;;;;;;;5.18;2.53;;;;;;;18.09;53.67;100872.56;5059153;28;20057;-89
2022/06/04 00:59:00;;;;;;;7.78;2.28;;;;;;;18.28;52.99;100877.00;5059217;28;20056;-89
2022/06/04 01:01:31;;;;;;;6.75;3.17;;;;;;;17.73;53.99;100869.63;5058815;28;20071;-89
2022/06/04 01:04:47;;;;;;;6.22;2.58;;;;;;;17.74;53.93;100867.78;5059002;28;20016;-88
2022/06/04 01:07:13;;;;;;;8.70;2.65;;;;;;;17.67;54.08;100875.47;5059041;28;20036;-89
2022/06/04 01:09:44;;;;;;;5.38;2.90;;;;;;;17.69;53.88;100870.84;5058598;28;20531;-89
2022/06/04 01:12:38;;;;;;;4.85;2.40;;;;;;;17.48;53.69;100862.19;5059067;28;20033;-89
2022/06/04 01:15:44;;;;;;;5.25;2.70;;;;;;;17.18;53.89;100866.56;5045291;28;20174;-89
2022/06/04 01:18:25;;;;;;;5.75;2.10;;;;;;;17.52;53.08;100868.91;5058509;28;20028;-88
2022/06/04 01:21:16;;;;;;;4.15;1.70;;;;;;;17.44;53.15;100870.41;5058841;28;20460;-89
2022/06/04 01:23:48;;;;;;;9.23;1.90;;;;;;;16.92;53.27;100872.34;5059202;28;20041;-88
2022/06/04 01:26:27;;;;;;;5.93;2.03;;;;;;;17.01;53.41;100882.19;5057686;28;20052;-89
2022/06/04 01:28:59;;;;;;;5.57;2.05;;;;;;;16.75;53.17;100880.94;5057594;28;20051;-88
2022/06/04 01:31:31;;;;;;;3.97;1.70;;;;;;;16.73;53.34;100882.88;5057577;28;20506;-88
2022/06/04 01:34:02;;;;;;;5.57;1.40;;;;;;;16.87;53.08;100879.91;5058710;28;20033;-89
2022/06/04 01:36:33;;;;;;;7.80;1.27;;;;;;;16.56;52.99;100871.91;5058722;28;20033;-89
2022/06/04 01:39:08;;;;;;;4.65;1.98;;;;;;;16.77;53.13;100879.00;5059074;28;20078;-89
2022/06/04 01:41:39;;;;;;;6.03;1.92;;;;;;;16.95;52.56;100884.53;5062675;28;20506;-88
2022/06/04 01:44:13;;;;;;;4.90;1.60;;;;;;;16.89;52.75;100879.78;5062712;28;20107;-89
2022/06/04 01:46:46;;;;;;;3.28;1.52;;;;;;;16.61;53.45;100875.00;5062713;28;20114;-88
2022/06/04 01:49:17;;;;;;;6.13;1.67;;;;;;;16.26;53.86;100878.84;5061087;28;20491;-89
2022/06/04 01:51:46;;;;;;;8.65;1.77;;;;;;;16.45;53.83;100880.78;5062397;28;20106;-89
2022/06/04 01:54:19;;;;;;;5.22;1.70;;;;;;;16.23;54.09;100871.16;5062277;28;20109;-88
2022/06/04 01:56:49;;;;;;;3.13;1.85;;;;;;;16.24;54.80;100872.00;5061121;28;20391;-88
2022/06/04 01:59:17;;;;;;;5.10;1.52;;;;;;;16.44;54.23;100873.78;5061322;28;20037;-88
2022/06/04 02:01:46;;;;;;;3.63;1.77;;;;;;;16.39;54.59;100888.41;5062118;28;20490;-89
2022/06/04 02:04:19;;;;;;;3.80;1.33;;;;;;;16.58;54.32;100869.13;5061804;28;20056;-89
2022/06/04 02:09:42;;;;;;;6.32;1.80;;;;;;;16.19;54.94;100871.53;5062152;28;20090;-88
2022/06/04 02:12:10;;;;;;;2.83;1.60;;;;;;;16.22;55.03;100882.72;5061979;28;20028;-88
2022/06/04 02:14:36;;;;;;;3.50;1.83;;;;;;;16.16;55.47;100875.28;5061978;28;20083;-89
2022/06/04 02:17:08;;;;;;;6.55;2.15;;;;;;;15.71;56.48;100867.53;5062075;28;20033;-88
2022/06/04 02:19:33;;;;;;;9.00;2.33;;;;;;;16.02;56.56;100862.38;5061644;28;20041;-89
2022/06/04 02:21:59;;;;;;;6.43;2.25;;;;;;;15.86;56.85;100847.75;5061625;28;20056;-89
2022/06/04 02:24:24;;;;;;;8.55;1.90;;;;;;;15.97;56.51;100849.50;5060812;28;20517;-88
2022/06/04 02:26:50;;;;;;;7.10;1.98;;;;;;;16.13;56.81;100854.34;5062157;28;20077;-89
2022/06/04 02:29:16;;;;;;;7.32;2.03;;;;;;;16.10;56.67;100867.03;5061713;28;20096;-88
2022/06/04 02:31:55;;;;;;;8.60;2.10;;;;;;;15.96;57.51;100850.47;5062051;28;20033;-88
2022/06/04 02:34:26;;;;;;;6.97;2.10;;;;;;;15.61;58.64;100853.38;5061859;28;20490;-88
2022/06/04 02:37:22;;;;;;;5.85;2.30;;;;;;;15.65;58.86;100862.72;5061374;28;20044;-88
2022/06/04 02:40:10;;;;;;;7.35;2.50;;;;;;;15.62;58.84;100855.03;5061207;28;20052;-88
2022/06/04 02:42:45;;;;;;;8.35;2.75;;;;;;;15.61;59.70;100859.50;5061388;28;20032;-88
2022/06/04 02:45:38;;;;;;;8.05;3.03;;;;;;;15.97;59.02;100848.66;5061518;28;20367;-88
2022/06/04 02:48:17;;;;;;;8.50;3.03;;;;;;;15.97;59.20;100853.97;5057229;28;20052;-88
2022/06/04 02:50:49;;;;;;;4.90;2.20;;;;;;;16.03;58.86;100858.75;5061060;28;20041;-88
2022/06/04 02:53:16;;;;;;;6.53;3.95;;;;;;;16.16;58.83;100856.75;5061292;28;20107;-88
2022/06/04 02:55:48;;;;;;;9.25;3.17;;;;;;;16.19;58.86;100859.16;5061359;28;20025;-88
2022/06/04 02:58:14;;;;;;;;;;;;;;;16.12;59.41;100855.31;5061449;28;20040;-88
2022/06/04 03:00:41;;;;;;;5.72;2.75;;;;;;;15.62;60.97;100860.31;5061090;28;19939;-88
2022/06/04 03:03:11;;;;;;;8.95;3.40;;;;;;;15.76;60.59;100854.78;5060915;28;20407;-88
2022/06/04 03:05:39;;;;;;;11.73;3.33;;;;;;;15.59;61.36;100852.66;5059800;28;20064;-88
2022/06/04 03:08:05;;;;;;;9.73;3.20;;;;;;;16.01;60.59;100856.22;5060990;28;20026;-87
2022/06/04 03:10:34;;;;;;;12.27;3.90;;;;;;;15.85;60.63;100869.06;5060777;28;20514;-88
2022/06/04 03:13:00;;;;;;;11.00;3.47;;;;;;;15.70;61.86;100849.97;5060705;28;20154;-88
2022/06/04 03:15:26;;;;;;;5.07;3.10;;;;;;;16.06;60.71;100853.19;5061331;28;20115;-88
2022/06/04 03:17:52;;;;;;;9.65;3.70;;;;;;;16.12;60.73;100843.91;5060872;28;20040;-88
2022/06/04 03:20:22;;;;;;;7.70;3.75;;;;;;;15.69;61.92;100845.63;5060553;28;20565;-88
2022/06/04 03:22:49;;;;;;;9.32;3.83;;;;;;;15.84;62.01;100851.50;5060277;28;20037;-87
2022/06/04 03:25:14;;;;;;;8.95;3.42;;;;;;;15.80;62.63;100858.88;5060756;28;20025;-88
2022/06/04 03:27:39;;;;;;;16.83;4.65;;;;;;;15.66;62.80;100845.91;5060678;28;20032;-89
2022/06/04 03:30:06;;;;;;;12.48;4.45;;;;;;;15.90;62.13;100852.81;5060561;28;20044;-89
2022/06/04 03:32:31;;;;;;;7.65;4.15;;;;;;;16.03;61.62;100845.50;5060792;28;20048;-88
2022/06/04 03:34:57;;;;;;;9.48;3.75;;;;;;;16.26;61.51;100839.09;5060574;28;20025;-89
2022/06/04 03:37:22;;;;;;;12.60;5.70;;;;;;;15.77;63.05;100847.69;5060244;28;20039;-89
2022/06/04 03:39:48;;;;;;;12.82;4.55;;;;;;;16.02;62.58;100852.59;5060486;28;20074;-88
2022/06/04 03:42:13;;;;;;;6.68;3.90;;;;;;;15.94;62.76;100849.78;5060751;28;20025;-89
2022/06/04 03:44:40;;;;;;;6.90;3.83;;;;;;;15.93;63.14;100847.25;5060376;28;20101;-88
2022/06/04 03:47:06;;;;;;;8.30;4.45;;;;;;;15.85;63.31;100850.53;5060263;28;20032;-88
2022/06/04 03:49:32;;;;;;;9.32;4.53;;;;;;;15.84;63.50;100857.63;5060057;28;20025;-89
2022/06/04 03:51:58;;;;;;;9.73;5.00;;;;;;;15.59;64.69;100865.88;5060131;28;20086;-87
2022/06/04 03:54:52;;;;;;;9.18;4.53;;;;;;;16.41;62.32;100867.91;5060184;28;20025;-88
2022/06/04 03:59:54;;;;;;;9.27;4.80;;;;;;;15.53;65.84;100877.81;5059840;28;20043;-88
2022/06/04 04:02:19;;;;;;;9.88;4.43;;;;;;;15.92;64.65;100883.47;5059209;28;20119;-87
2022/06/04 04:04:45;;;;;;;14.32;5.30;;;;;;;15.84;65.26;100881.47;5059804;28;20506;-89
2022/06/04 04:07:11;;;;;;;9.73;5.65;;;;;;;15.33;66.67;100886.53;5059361;28;20033;-88
2022/06/04 04:09:36;;;;;;;11.48;5.80;;;;;;;15.72;66.81;100890.41;5058918;28;20024;-88
2022/06/04 04:12:02;;;;;;;12.88;6.22;;;;;;;15.65;66.65;100883.91;5059625;28;20090;-88
2022/06/04 04:14:27;;;;;;;12.88;5.88;;;;;;;15.62;67.29;100886.78;5059666;28;20033;-88
2022/06/04 04:16:53;;;;;;;13.82;5.55;;;;;;;15.21;68.50;100883.06;5058647;28;20036;-88
2022/06/04 04:19:18;;;;;;;7.90;5.22;;;;;;;15.41;68.08;100884.94;5059531;28;20040;-88
2022/06/04 04:21:43;;;;;;;11.73;6.63;;;;;;;14.95;69.46;100885.97;5059674;28;20025;-86
2022/06/04 04:24:09;;;;;;;15.05;6.68;;;;;;;15.23;68.63;100881.13;5059616;28;20044;-87
2022/06/04 04:26:34;;;;;;;13.95;7.18;;;;;;;14.98;69.33;100877.78;5060036;28;20053;-87
2022/06/04 04:28:59;;;;;;;13.63;6.53;;;;;;;15.25;68.07;100884.50;5059469;28;20074;-88
2022/06/04 04:31:26;;;;;;;9.35;6.18;;;;;;;15.22;68.85;100890.03;5059315;28;20082;-87
2022/06/04 04:33:52;;;;;;;12.60;6.35;;;;;;;15.31;69.06;100894.59;5059589;28;20036;-87
2022/06/04 04:36:17;;;;;;;11.27;6.75;;;;;;;15.03;69.05;100896.78;5059527;28;20036;-87
2022/06/04 04:38:42;;;;;;;15.00;6.50;;;;;;;14.99;69.97;100895.34;5057895;28;20029;-87
2022/06/04 04:41:10;;;;;;;16.13;7.38;;;;;;;15.14;69.90;100895.91;5059301;28;20047;-86
2022/06/04 04:43:35;;;;;;;10.35;6.78;;;;;;;15.50;68.38;100886.03;5059207;28;20024;-87
2022/06/04 04:46:07;;;;;;;11.23;7.55;;;;;;;14.90;70.06;100896.06;5059769;28;20090;-86
2022/06/04 04:48:32;;;;;;;17.70;7.20;;;;;;;15.25;69.18;100895.09;5059465;28;20387;-86
2022/06/04 04:50:57;;;;;;;13.48;7.25;;;;;;;15.02;69.99;100894.25;5059213;28;20063;-86
2022/06/04 04:53:23;;;;;;;15.43;7.43;;;;;;;15.29;69.23;100899.16;5059201;28;20159;-86
2022/06/04 04:55:48;;;;;;;16.67;7.65;;;;;;;15.34;68.83;100896.13;5059098;28;20033;-86
2022/06/04 04:58:14;;;;;;;14.50;7.63;;;;;;;15.43;68.93;100892.75;5056823;28;20036;-87
2022/06/04 05:00:40;;;;;;;17.33;7.53;;;;;;;15.26;69.19;100888.81;5059278;28;20033;-86
2022/06/04 05:03:05;;;;;;;11.02;6.78;;;;;;;15.55;68.21;100904.16;5059088;28;20021;-86
2022/06/04 05:05:31;;;;;;;16.45;7.75;;;;;;;15.34;68.91;100891.69;5059376;28;20511;-87
2022/06/04 05:07:57;;;;;;;15.60;7.38;;;;;;;15.46;68.37;100901.28;5059792;28;20378;-86
2022/06/04 05:10:22;;;;;;;12.35;7.75;;;;;;;15.26;68.83;100896.75;5059127;28;20068;-87
2022/06/04 05:12:51;;;;;;;19.50;6.97;;;;;;;15.34;68.53;100899.63;5057551;28;20029;-86
2022/06/04 05:15:17;;;;;;;14.05;7.38;;;;;;;15.73;67.42;100907.16;5061906;28;20204;-87
2022/06/04 05:17:42;;;;;;;14.23;7.05;;;;;;;15.93;67.02;100911.63;5063052;28;20375;-87
2022/06/04 05:20:08;;;;;;;16.80;7.90;;;;;;;15.71;68.02;100912.53;5063061;28;20079;-87
2022/06/04 05:22:33;;;;;;;22.15;7.95;;;;;;;15.57;68.43;100899.59;5063185;28;20029;-87
2022/06/04 05:24:59;;;;;;;17.67;7.93;;;;;;;15.41;67.69;100908.75;5063497;28;20477;-87
2022/06/04 05:27:24;;;;;;;13.80;6.55;;;;;;;15.86;66.75;100908.66;5062760;28;20411;-87
2022/06/04 05:29:49;;;;;;;12.57;6.25;;;;;;;15.82;67.30;100909.88;5062774;28;20119;-87
2022/06/04 05:32:15;;;;;;;17.17;7.40;;;;;;;15.46;68.19;100911.88;5062463;28;20466;-87
2022/06/04 05:34:40;;;;;;;12.18;6.45;;;;;;;15.50;68.14;100908.97;5062590;28;20395;-88
2022/06/04 05:37:06;;;;;;;11.07;7.05;;;;;;;15.85;66.91;100909.63;5060061;28;20032;-88
2022/06/04 05:39:31;;;;;;;15.38;7.05;;;;;;;15.34;68.52;100904.91;5062425;28;20611;-87
2022/06/04 05:41:58;;;;;;;19.52;7.60;;;;;;;15.35;68.44;100903.97;5062295;28;20033;-87
2022/06/04 05:44:23;;;;;;;11.55;6.65;;;;;;;15.40;67.56;100904.44;5062353;28;20564;-93
2022/06/04 05:46:49;;;;;;;11.25;6.47;;;;;;;15.34;67.89;100910.19;5063096;28;20120;-87
2022/06/04 05:49:15;;;;;;;14.20;7.00;;;;;;;15.71;66.92;100915.19;5062334;28;20271;-88
2022/06/04 05:51:42;;;;;;;14.00;6.93;;;;;;;15.75;67.20;100919.28;5061293;28;20029;-88
2022/06/04 05:54:09;;;;;;;9.40;6.63;;;;;;;16.03;65.90;100914.34;5062469;28;20032;-88
2022/06/04 05:56:37;;;;;;;18.20;7.38;;;;;;;15.57;66.86;100913.66;5062219;28;20032;-87
2022/06/04 05:59:07;;;;;;;16.52;7.32;;;;;;;15.87;66.24;100922.72;5062416;28;20044;-88
2022/06/04 06:01:34;;;;;;;15.00;6.53;;;;;;;15.37;68.33;100914.44;5062083;28;20128;-88
2022/06/04 06:04:00;;;;;;;15.48;6.85;;;;;;;15.26;68.04;100912.63;5062082;28;20029;-87
2022/06/04 06:06:29;;;;;;;13.07;6.88;;;;;;;15.73;67.52;100921.22;5061879;28;20116;-87
2022/06/04 06:08:56;;;;;;;15.35;6.97;;;;;;;15.75;68.09;100921.94;5060774;28;20936;-88
2022/06/04 06:11:23;;;;;;;14.82;6.43;;;;;;;15.95;66.75;100919.47;5061200;28;20081;-88
2022/06/04 06:13:49;;;;;;;15.88;7.05;;;;;;;15.83;66.79;100930.09;5061946;28;20100;-90
2022/06/04 06:16:21;;;;;;;11.88;6.00;;;;;;;15.75;66.81;100921.94;5062751;28;20037;-88
2022/06/04 06:18:46;;;;;;;17.23;6.78;;;;;;;15.59;66.93;100924.13;5061450;28;20087;-88
2022/06/04 06:21:15;;;;;;;10.35;5.63;;;;;;;16.31;65.34;100915.56;5059716;28;20041;-87
2022/06/04 06:23:40;;;;;;;11.60;5.65;;;;;;;15.58;66.63;100917.13;5061348;28;20035;-87
2022/06/04 06:26:12;;;;;;;18.83;6.30;;;;;;;15.42;67.51;100918.38;5061136;28;20401;-88
2022/06/04 06:28:39;;;;;;;11.48;5.55;;;;;;;15.84;66.42;100926.47;5059327;28;20446;-87
2022/06/04 06:31:05;;;;;;;15.50;6.45;;;;;;;15.11;68.70;100924.44;5061891;28;20490;-88
2022/06/04 06:33:31;;;;;;;11.50;6.88;;;;;;;15.61;66.89;100919.53;5060930;28;20037;-88
2022/06/04 06:36:03;;;;;;;9.02;5.90;;;;;;;15.32;67.27;100922.72;5060359;28;20448;-89
2022/06/04 06:38:29;;;;;;;9.23;6.25;;;;;;;15.62;66.77;100922.06;5061190;28;20025;-88
2022/06/04 06:40:56;;;;;;;13.68;5.97;;;;;;;15.25;67.75;100921.53;5062094;28;20461;-88
2022/06/04 06:43:23;;;;;;;9.43;5.47;;;;;;;15.70;66.68;100916.16;5059318;28;20036;-91
2022/06/04 06:45:49;;;;;;;16.02;6.63;;;;;;;16.22;65.46;100917.16;5058176;28;20067;-90
2022/06/04 06:48:15;;;;;;;14.27;5.57;;;;;;;16.18;65.25;100913.09;5059834;28;20432;-89
2022/06/04 06:50:42;;;;;;;9.57;5.30;;;;;;;15.60;65.94;100920.50;5058394;28;20044;-89
2022/06/04 06:53:09;;;;;;;14.15;5.85;;;;;;;15.90;65.48;100903.13;5062049;28;20035;-90
2022/06/04 06:55:34;;;;;;;15.90;5.93;;;;;;;15.56;66.26;100909.34;5058496;28;20467;-89
2022/06/04 06:58:00;;;;;;;10.15;5.60;;;;;;;15.40;67.84;100915.03;5061880;28;20036;-90
2022/06/04 07:00:26;;;;;;;12.75;5.75;;;;;;;15.69;66.79;100914.47;5060791;28;20115;-92
2022/06/04 07:02:51;;;;;;;8.57;5.30;;;;;;;15.60;66.86;100925.78;5061519;28;20090;-89
2022/06/04 07:05:17;;;;;;;12.45;5.22;;;;;;;15.57;66.23;100924.22;5059498;28;20029;-89
2022/06/04 07:07:42;;;;;;;12.80;6.30;;;;;;;15.71;66.25;100928.41;5060009;28;20371;-89
2022/06/04 07:10:09;;;;;;;14.15;5.57;;;;;;;15.75;66.26;100911.34;5060891;28;20059;-89
2022/06/04 07:12:35;;;;;;;13.73;5.50;;;;;;;16.01;65.20;100903.88;5058967;28;20413;-94
2022/06/04 07:15:00;;;;;;;14.80;5.63;;;;;;;15.90;65.37;100896.00;5057932;28;20078;-89
2022/06/04 07:17:25;;;;;;;9.70;5.57;;;;;;;16.22;64.39;100898.63;5057792;28;20489;-89
2022/06/04 07:19:51;;;;;;;11.82;4.75;;;;;;;15.90;65.31;100896.00;5058605;28;20036;-89
2022/06/04 07:22:16;;;;;;;14.65;5.70;;;;;;;15.98;65.48;100903.31;5058910;28;20025;-89
2022/06/04 07:24:42;;;;;;;10.00;5.90;;;;;;;15.89;64.87;100906.72;5058777;28;20028;-89
2022/06/04 07:27:09;;;;;;;9.38;5.30;;;;;;;16.05;65.03;100909.78;5059941;28;20025;-89
2022/06/04 07:29:35;;;;;;;8.48;5.35;;;;;;;15.90;65.13;100917.19;5060328;28;20021;-89
2022/06/04 07:32:01;;;;;;;14.70;6.15;;;;;;;16.22;63.73;100909.22;5057699;28;20386;-90
2022/06/04 07:34:27;;;;;;;10.80;5.22;;;;;;;15.85;64.90;100914.91;5062819;28;20040;-88
2022/06/04 07:36:52;;;;;;;8.57;5.63;;;;;;;15.84;64.84;100909.75;5058689;28;20033;-92
2022/06/04 07:39:18;;;;;;;10.20;4.90;;;;;;;15.82;64.86;100920.47;5064871;28;20028;-91
2022/06/04 07:41:47;;;;;;;12.63;4.93;;;;;;;16.33;63.05;100923.38;5055964;28;20425;-89
2022/06/04 07:44:16;;;;;;;12.98;5.10;;;;;;;15.73;64.46;100926.50;5057066;28;20048;-87
2022/06/04 07:46:43;;;;;;;11.15;5.43;;;;;;;15.70;65.19;100926.75;5061288;28;20562;-90
2022/06/04 07:49:09;;;;;;;10.20;4.45;;;;;;;16.01;64.06;100921.59;5050764;28;20039;-91
2022/06/04 07:51:36;;;;;;;7.68;4.60;;;;;;;16.13;63.41;100939.13;5053347;28;20044;-90
2022/06/04 07:54:03;;;;;;;13.38;4.90;;;;;;;16.01;64.04;100934.84;5069205;28;20099;-91
2022/06/04 07:56:29;;;;;;;7.65;4.30;;;;;;;16.13;64.08;100927.69;5069330;28;20017;-91
2022/06/04 07:58:54;;;;;;;10.70;5.55;;;;;;;16.09;63.64;100934.22;5056005;28;20051;-90
2022/06/04 08:01:22;;;;;;;11.32;4.65;;;;;;;16.58;62.64;100932.75;5063211;28;20116;-90
2022/06/04 08:03:49;;;;;;;6.70;4.38;;;;;;;17.04;61.14;100929.66;5058814;28;20060;-92
2022/06/04 08:06:17;;;;;;;8.55;4.13;;;;;;;17.62;59.64;100936.97;5069310;28;20057;-90
2022/06/04 08:08:43;;;;;;;6.30;4.28;;;;;;;17.62;59.68;100944.09;5055736;28;20032;-92
2022/06/04 08:13:52;;;;;;;7.25;4.00;;;;;;;17.99;58.48;100946.97;5059975;28;20115;-91
2022/06/04 08:16:19;;;;;;;13.82;4.13;;;;;;;17.64;59.09;100937.66;5051002;28;20127;-91
2022/06/04 08:18:45;;;;;;;11.02;4.32;;;;;;;17.55;59.26;100932.31;5063266;28;20103;-92
2022/06/04 08:21:10;;;;;;;6.78;4.15;;;;;;;17.72;58.89;100928.16;5058812;28;20035;-93
2022/06/04 08:23:39;;;;;;;7.90;4.32;;;;;;;17.87;58.66;100926.81;5060064;28;20025;-90
2022/06/04 08:26:07;;;;;;;11.35;4.30;;;;;;;17.85;57.71;100939.38;5065916;28;20115;-90
2022/06/04 08:28:33;;;;;;;9.32;3.90;;;;;;;17.77;57.93;100928.56;5069886;28;20021;-91
2022/06/04 08:31:05;;;;;;;13.52;4.38;;;;;;;17.64;58.87;100939.47;5065493;28;20036;-90
2022/06/04 08:33:31;;;;;;;10.50;4.28;;;;;;;17.55;58.98;100937.63;5060459;28;20032;-90
2022/06/04 08:35:56;;;;;;;6.85;3.67;;;;;;;17.21;59.99;100940.63;5057718;28;20033;-92
2022/06/04 08:38:23;;;;;;;11.93;5.07;;;;;;;17.47;59.44;100950.75;5049152;28;20025;-90
2022/06/04 08:40:56;;;;;;;14.88;4.40;;;;;;;17.03;59.92;100948.38;5064668;28;20375;-90
2022/06/04 08:43:35;;;;;;;15.10;5.38;;;;;;;16.91;60.38;100955.56;5060908;28;20109;-90
2022/06/04 08:46:14;;;;;;;5.57;4.07;;;;;;;17.51;59.15;100965.44;5055813;28;20028;-91
2022/06/04 08:48:40;;;;;;;8.73;4.03;;;;;;;17.94;57.93;100959.81;5056714;28;20082;-91
2022/06/04 08:51:22;;;;;;;5.15;3.50;;;;;;;18.67;55.46;100958.50;5066606;28;20028;-90
2022/06/04 08:53:52;;;;;;;9.63;4.07;;;;;;;18.70;55.21;100948.44;5065605;28;20491;-90
2022/06/04 08:59:40;;;;;;;11.95;3.95;;;;;;;17.97;56.89;100940.09;5034890;28;20045;-90
2022/06/04 09:02:20;;;;;;;8.10;4.15;;;;;;;17.38;58.89;100952.41;5050426;28;20029;-90
2022/06/04 09:05:15;;;;;;;8.38;3.70;;;;;;;17.58;58.37;100953.31;5056096;28;20025;-89
2022/06/04 09:07:46;;;;;;;13.25;4.10;;;;;;;17.78;58.24;100946.22;5054899;28;20036;-90
2022/06/04 09:10:20;;;;;;;8.65;4.07;;;;;;;17.82;58.00;100952.91;5065213;28;20461;-90
2022/06/04 09:12:58;;;;;;;8.10;4.28;;;;;;;17.53;58.17;100955.53;5065478;28;20039;-90
2022/06/04 09:15:34;;;;;;;9.23;4.50;;;;;;;17.67;57.43;100965.75;5067179;28;20021;-90
2022/06/04 09:18:09;;;;;;;13.50;3.70;;;;;;;17.65;58.17;100959.72;5055512;28;20384;-90
2022/06/04 09:20:54;;;;;;;11.10;3.85;;;;;;;17.76;57.51;100962.28;5046192;28;20037;-89
2022/06/04 09:23:19;;;;;;;11.20;4.05;;;;;;;17.83;57.12;100974.06;5064418;28;20037;-90
2022/06/04 09:25:51;;;;;;;7.00;3.70;;;;;;;17.36;57.94;100971.13;5059456;28;20082;-95
2022/06/04 09:28:32;;;;;;;12.23;3.50;;;;;;;18.26;56.81;100984.44;5080674;28;20029;-94
2022/06/04 09:31:11;;;;;;;8.83;3.50;;;;;;;18.04;57.38;100976.59;5078438;28;20056;-91
2022/06/04 09:33:51;;;;;;;8.32;3.17;;;;;;;18.27;56.20;100972.84;5072402;28;20029;-96
2022/06/04 09:36:22;;;;;;;7.72;3.95;;;;;;;17.83;57.65;100978.50;5071518;28;20036;-96
2022/06/04 09:39:04;;;;;;;15.37;4.53;;;;;;;17.97;56.76;100969.31;5070460;28;20025;-96
2022/06/04 09:41:33;;;;;;;10.60;3.25;;;;;;;18.93;55.32;100967.56;5059067;28;20289;-95
2022/06/04 09:44:05;;;;;;;11.70;3.42;;;;;;;18.94;54.40;100971.91;5066413;28;20028;-96
2022/06/04 09:46:31;;;;;;;7.78;3.45;;;;;;;18.92;54.52;100965.91;5070071;28;20028;-95
2022/06/04 09:48:58;;;;;;;9.00;3.33;;;;;;;19.67;53.27;100981.81;5067571;28;20119;-95
2022/06/04 09:51:27;;;;;;;13.23;3.38;;;;;;;19.19;54.03;100977.56;5066219;28;20182;-94
2022/06/04 09:54:05;;;;;;;9.00;3.03;;;;;;;19.43;52.87;100985.00;5060676;28;20028;-94
2022/06/04 09:56:31;;;;;;;8.75;3.10;;;;;;;19.28;53.63;100976.69;5058150;28;20039;-95
2022/06/04 09:59:28;;;;;;;9.27;3.45;;;;;;;19.09;54.04;100992.72;5064564;28;20024;-94
2022/06/04 10:01:58;;;;;;;6.70;2.60;;;;;;;19.81;52.48;100991.16;5063776;28;20009;-95
2022/06/04 10:04:36;;;;;;;9.50;3.75;;;;;;;19.17;53.34;100980.38;5078750;28;20080;-96
2022/06/04 10:07:09;;;;;;;7.90;3.33;;;;;;;19.37;52.84;100981.13;5085022;28;20492;-93
2022/06/04 10:13:42;;;;;;;10.25;2.95;;;;;;;19.11;52.91;100999.56;5071945;28;20170;-94
2022/06/04 10:15:19;;;;;;;10.75;3.80;;;;;;;18.91;53.93;100988.16;5068530;28;20077;-94
2022/06/04 10:17:45;;;;;;;11.32;3.20;;;;;;;18.37;54.75;100992.28;5064772;28;20467;-95
2022/06/04 10:20:23;;;;;;;6.53;2.80;;;;;;;18.03;56.26;100995.34;5060052;28;20029;-94
2022/06/04 10:22:50;;;;;;;7.45;3.00;;;;;;;19.13;54.27;100999.44;5068337;28;20699;-96
2022/06/04 10:25:30;;;;;;;9.68;3.40;;;;;;;18.61;55.52;100999.81;5067379;28;20032;-95
2022/06/04 10:28:10;;;;;;;11.43;3.08;;;;;;;18.60;54.96;101006.09;5073236;28;20021;-95
2022/06/04 10:30:54;;;;;;;7.82;2.95;;;;;;;18.75;54.90;101002.03;5076048;28;20435;-96
2022/06/04 10:33:25;;;;;;;6.90;3.33;;;;;;;18.85;54.46;100994.06;5074265;28;20028;-96
2022/06/04 10:36:17;;;;;;;12.15;4.07;;;;;;;18.57;55.41;101004.56;5073350;28;20510;-91
2022/06/04 10:38:55;;;;;;;9.50;3.67;;;;;;;19.90;52.51;101002.72;5060645;28;20059;-92
2022/06/04 10:42:05;;;;;;;9.02;3.17;;;;;;;20.13;51.42;100998.63;5065693;28;20059;-93
2022/06/04 10:44:49;;;;;;;9.57;3.30;;;;;;;20.02;52.16;101001.50;5070087;28;20505;-95
2022/06/04 10:47:34;;;;;;;4.32;2.60;;;;;;;20.95;50.05;100993.97;5068636;28;20032;-96
2022/06/04 10:50:05;;;;;;;7.78;2.67;;;;;;;23.23;46.43;100985.63;5063780;28;20075;-95
2022/06/04 10:53:13;;;;;;;8.98;3.40;;;;;;;22.46;45.95;100980.75;5057448;28;20085;-94
2022/06/04 10:55:54;;;;;;;7.35;2.42;;;;;;;24.46;42.68;100960.72;5029411;28;20036;-96
2022/06/04 10:58:36;;;;;;;5.35;2.53;;;;;;;24.10;42.46;100958.69;5071340;28;20025;-94
2022/06/04 11:01:20;;;;;;;7.75;2.65;;;;;;;25.52;40.78;100971.38;5070540;28;20028;-95
2022/06/04 11:03:51;;;;;;;5.70;2.17;;;;;;;25.40;40.52;100973.69;5073460;28;20096;-95
2022/06/04 11:06:26;;;;;;;5.20;2.30;;;;;;;23.78;43.04;100980.38;5073362;28;20120;-95
2022/06/04 11:09:01;;;;;;;10.68;2.13;;;;;;;24.13;43.37;100970.91;5073521;28;20047;-95
2022/06/04 11:11:51;;;;;;;4.85;2.60;;;;;;;23.26;44.45;100958.50;5062685;28;20021;-96
2022/06/04 11:14:42;;;;;;;5.80;2.55;;;;;;;25.20;41.42;100962.66;5069399;28;20127;-95
2022/06/04 11:17:39;;;;;;;9.00;2.50;;;;;;;25.02;40.39;100960.38;5073312;28;20486;-95
2022/06/04 11:20:31;;;;;;;7.78;2.67;;;;;;;24.50;41.94;100950.47;5058118;28;20111;-95
2022/06/04 11:23:25;;;;;;;10.18;2.47;;;;;;;25.01;41.40;100947.94;5057957;28;20035;-94
2022/06/04 11:25:56;;;;;;;10.55;2.30;;;;;;;25.69;40.88;100945.91;5062453;28;20518;-91
2022/06/04 11:28:24;;;;;;;7.30;2.17;;;;;;;26.17;40.21;100936.47;5072146;28;20452;-94
2022/06/04 11:30:59;;;;;;;8.50;2.40;;;;;;;26.04;40.08;100927.22;5067481;28;20468;-93
2022/06/04 11:33:38;;;;;;;5.25;2.40;;;;;;;26.52;39.42;100938.19;5053050;28;20040;-94
2022/06/04 11:36:24;;;;;;;3.47;1.73;;;;;;;25.27;41.12;100941.28;5068119;28;20028;-93
2022/06/04 11:39:09;;;;;;;6.78;2.08;;;;;;;24.57;42.20;100961.34;5062886;28;20028;-92
2022/06/04 11:41:44;;;;;;;5.55;2.13;;;;;;;24.07;41.86;100948.34;5064336;28;20466;-94
2022/06/04 11:44:23;;;;;;;5.25;2.70;;;;;;;23.84;43.01;100939.47;5055550;28;20021;-92
2022/06/04 11:47:00;;;;;;;8.07;2.33;;;;;;;24.81;41.30;100942.28;5065341;28;20025;-91
2022/06/04 11:49:36;;;;;;;8.15;2.20;;;;;;;23.28;45.13;100935.06;5063864;28;20029;-92
2022/06/04 11:52:27;;;;;;;6.22;2.35;;;;;;;23.66;42.85;100935.19;5071441;28;20106;-91
2022/06/04 11:55:14;;;;;;;7.93;2.22;;;;;;;23.02;44.08;100942.47;5063299;28;20544;-91
2022/06/04 11:58:04;;;;;;;8.90;2.20;;;;;;;22.86;43.89;100946.88;5065444;28;20425;-92
2022/06/04 12:00:42;;;;;;;7.70;2.03;;;;;;;23.18;44.33;100945.13;5062385;28;20519;-93